sensor_id;sensor_type;location;lat;lon;timestamp;pressure;altitude;pressure_sealevel;temperature;humidity
67818;BME280;54614;47.576;7.524;2023-02-11T00:01:52;100561.47;;;23.45;28.38
67818;BME280;54614;47.576;7.524;2023-02-11T00:04:18;100556.09;;;23.45;28.28
67818;BME280;54614;47.576;7.524;2023-02-11T00:06:44;100562.63;;;23.43;27.98
67818;BME280;54614;47.576;7.524;2023-02-11T00:09:10;100557.28;;;23.43;28.00
67818;BME280;54614;47.576;7.524;2023-02-11T00:11:36;100558.81;;;23.45;28.50
67818;BME280;54614;47.576;7.524;2023-02-11T00:14:05;100558.09;;;23.43;27.91
67818;BME280;54614;47.576;7.524;2023-02-11T00:16:32;100557.28;;;23.43;28.12
67818;BME280;54614;47.576;7.524;2023-02-11T00:19:02;100560.44;;;23.38;27.92
67818;BME280;54614;47.576;7.524;2023-02-11T00:21:30;100560.94;;;23.42;28.33
67818;BME280;54614;47.576;7.524;2023-02-11T00:23:58;100553.06;;;23.40;28.16
67818;BME280;54614;47.576;7.524;2023-02-11T00:26:31;100551.22;;;23.41;28.24
67818;BME280;54614;47.576;7.524;2023-02-11T00:28:58;100553.53;;;23.36;28.04
67818;BME280;54614;47.576;7.524;2023-02-11T00:31:25;100548.31;;;23.34;27.92
67818;BME280;54614;47.576;7.524;2023-02-11T00:33:52;100542.25;;;23.32;28.20
67818;BME280;54614;47.576;7.524;2023-02-11T00:36:22;100547.78;;;23.31;28.75
67818;BME280;54614;47.576;7.524;2023-02-11T00:38:50;100547.63;;;23.32;28.67
67818;BME280;54614;47.576;7.524;2023-02-11T00:41:17;100545.47;;;23.36;28.63
67818;BME280;54614;47.576;7.524;2023-02-11T00:43:43;100539.41;;;23.34;28.75
67818;BME280;54614;47.576;7.524;2023-02-11T00:46:10;100533.19;;;23.33;28.58
67818;BME280;54614;47.576;7.524;2023-02-11T00:48:36;100528.97;;;23.31;28.50
67818;BME280;54614;47.576;7.524;2023-02-11T00:51:03;100526.13;;;23.32;28.81
67818;BME280;54614;47.576;7.524;2023-02-11T00:53:30;100528.34;;;23.37;28.49
67818;BME280;54614;47.576;7.524;2023-02-11T00:55:56;100520.44;;;23.35;28.40
67818;BME280;54614;47.576;7.524;2023-02-11T00:58:22;100519.59;;;23.35;28.76
67818;BME280;54614;47.576;7.524;2023-02-11T01:00:48;100521.66;;;23.41;28.51
67818;BME280;54614;47.576;7.524;2023-02-11T01:03:14;100509.56;;;23.37;28.52
67818;BME280;54614;47.576;7.524;2023-02-11T01:05:40;100512.25;;;23.37;28.61
67818;BME280;54614;47.576;7.524;2023-02-11T01:08:06;100508.03;;;23.34;28.34
67818;BME280;54614;47.576;7.524;2023-02-11T01:10:32;100509.72;;;23.35;28.51
67818;BME280;54614;47.576;7.524;2023-02-11T01:12:58;100507.88;;;23.36;28.54
67818;BME280;54614;47.576;7.524;2023-02-11T01:15:23;100498.28;;;23.33;28.73
67818;BME280;54614;47.576;7.524;2023-02-11T01:17:50;100495.75;;;23.32;28.63
67818;BME280;54614;47.576;7.524;2023-02-11T01:20:23;100488.53;;;23.32;28.93
67818;BME280;54614;47.576;7.524;2023-02-11T01:22:49;100484.00;;;23.33;28.92
67818;BME280;54614;47.576;7.524;2023-02-11T01:25:15;100488.38;;;23.34;28.84
67818;BME280;54614;47.576;7.524;2023-02-11T01:27:41;100489.53;;;23.31;28.76
67818;BME280;54614;47.576;7.524;2023-02-11T01:30:09;100487.00;;;23.30;28.65
67818;BME280;54614;47.576;7.524;2023-02-11T01:32:36;100494.38;;;23.28;28.84
67818;BME280;54614;47.576;7.524;2023-02-11T01:35:02;100484.66;;;23.27;28.92
67818;BME280;54614;47.576;7.524;2023-02-11T01:37:28;100488.34;;;23.26;28.79
67818;BME280;54614;47.576;7.524;2023-02-11T01:39:57;100497.22;;;23.26;28.79
67818;BME280;54614;47.576;7.524;2023-02-11T01:42:23;100493.00;;;23.24;29.11
67818;BME280;54614;47.576;7.524;2023-02-11T01:44:51;100491.16;;;23.24;28.89
67818;BME280;54614;47.576;7.524;2023-02-11T01:47:19;100497.38;;;23.25;28.88
67818;BME280;54614;47.576;7.524;2023-02-11T01:49:55;100493.16;;;23.22;28.93
67818;BME280;54614;47.576;7.524;2023-02-11T01:52:27;100492.16;;;23.23;29.12
67818;BME280;54614;47.576;7.524;2023-02-11T01:55:03;100491.78;;;23.18;28.97
67818;BME280;54614;47.576;7.524;2023-02-11T01:58:03;100484.75;;;23.17;28.82
67818;BME280;54614;47.576;7.524;2023-02-11T02:00:37;100487.59;;;23.15;28.96
67818;BME280;54614;47.576;7.524;2023-02-11T02:03:16;100478.53;;;23.17;29.18
67818;BME280;54614;47.576;7.524;2023-02-11T02:05:52;100467.94;;;23.15;29.08
67818;BME280;54614;47.576;7.524;2023-02-11T02:11:06;100467.94;;;23.15;29.04
67818;BME280;54614;47.576;7.524;2023-02-11T02:13:34;100459.22;;;23.13;29.11
67818;BME280;54614;47.576;7.524;2023-02-11T02:18:59;100456.69;;;23.11;28.96
67818;BME280;54614;47.576;7.524;2023-02-11T02:25:42;100465.06;;;23.08;29.05
67818;BME280;54614;47.576;7.524;2023-02-11T02:37:07;100472.41;;;23.06;28.91
67818;BME280;54614;47.576;7.524;2023-02-11T02:39:36;100466.84;;;23.00;29.32
67818;BME280;54614;47.576;7.524;2023-02-11T02:42:03;100476.56;;;23.01;29.23
67818;BME280;54614;47.576;7.524;2023-02-11T02:44:30;100474.19;;;22.98;29.06
67818;BME280;54614;47.576;7.524;2023-02-11T02:46:57;100473.88;;;23.01;29.26
67818;BME280;54614;47.576;7.524;2023-02-11T02:49:23;100474.72;;;23.01;29.16
67818;BME280;54614;47.576;7.524;2023-02-11T02:54:52;100477.88;;;22.97;29.25
67818;BME280;54614;47.576;7.524;2023-02-11T02:57:57;100475.03;;;22.98;29.09
67818;BME280;54614;47.576;7.524;2023-02-11T03:06:54;100458.72;;;22.92;29.07
67818;BME280;54614;47.576;7.524;2023-02-11T03:09:30;100456.88;;;22.92;29.26
67818;BME280;54614;47.576;7.524;2023-02-11T03:11:58;100469.28;;;22.93;29.05
67818;BME280;54614;47.576;7.524;2023-02-11T03:14:27;100468.91;;;22.88;29.18
67818;BME280;54614;47.576;7.524;2023-02-11T03:16:57;100458.88;;;22.90;29.06
67818;BME280;54614;47.576;7.524;2023-02-11T03:19:30;100459.03;;;22.89;29.36
67818;BME280;54614;47.576;7.524;2023-02-11T03:22:02;100455.50;;;22.88;29.21
67818;BME280;54614;47.576;7.524;2023-02-11T03:24:34;100454.66;;;22.88;29.03
67818;BME280;54614;47.576;7.524;2023-02-11T03:30:48;100446.06;;;22.84;29.36
67818;BME280;54614;47.576;7.524;2023-02-11T03:33:40;100455.13;;;22.83;29.22
67818;BME280;54614;47.576;7.524;2023-02-11T03:36:20;100449.91;;;22.81;29.11
67818;BME280;54614;47.576;7.524;2023-02-11T03:38:54;100442.69;;;22.82;29.08
67818;BME280;54614;47.576;7.524;2023-02-11T03:41:23;100445.38;;;22.82;29.23
67818;BME280;54614;47.576;7.524;2023-02-11T03:43:54;100442.00;;;22.80;29.09
67818;BME280;54614;47.576;7.524;2023-02-11T03:46:29;100441.84;;;22.81;29.26
67818;BME280;54614;47.576;7.524;2023-02-11T03:49:03;100441.19;;;22.79;29.08
67818;BME280;54614;47.576;7.524;2023-02-11T03:51:32;100431.28;;;22.80;29.36
67818;BME280;54614;47.576;7.524;2023-02-11T03:54:04;100435.94;;;22.78;29.05
67818;BME280;54614;47.576;7.524;2023-02-11T03:56:40;100426.03;;;22.78;29.09
67818;BME280;54614;47.576;7.524;2023-02-11T03:59:10;100426.03;;;22.78;28.97
67818;BME280;54614;47.576;7.524;2023-02-11T04:01:36;100421.97;;;22.74;29.21
67818;BME280;54614;47.576;7.524;2023-02-11T04:04:02;100417.88;;;22.80;29.21
67818;BME280;54614;47.576;7.524;2023-02-11T04:06:28;100411.94;;;22.76;28.94
67818;BME280;54614;47.576;7.524;2023-02-11T04:08:53;100410.09;;;22.77;29.01
67818;BME280;54614;47.576;7.524;2023-02-11T04:11:19;100412.78;;;22.77;29.19
67818;BME280;54614;47.576;7.524;2023-02-11T04:13:45;100411.41;;;22.73;29.17
67818;BME280;54614;47.576;7.524;2023-02-11T04:16:11;100413.56;;;22.69;29.38
67818;BME280;54614;47.576;7.524;2023-02-11T04:18:37;100420.44;;;22.72;29.29
67818;BME280;54614;47.576;7.524;2023-02-11T04:21:03;100417.09;;;22.70;29.22
67818;BME280;54614;47.576;7.524;2023-02-11T04:23:28;100423.44;;;22.69;29.04
67818;BME280;54614;47.576;7.524;2023-02-11T04:25:54;100435.19;;;22.68;29.13
67818;BME280;54614;47.576;7.524;2023-02-11T04:28:20;100434.72;;;22.72;29.19
67818;BME280;54614;47.576;7.524;2023-02-11T04:30:48;100425.97;;;22.70;29.27
67818;BME280;54614;47.576;7.524;2023-02-11T04:33:14;100426.97;;;22.69;29.18
67818;BME280;54614;47.576;7.524;2023-02-11T04:35:40;100434.63;;;22.64;29.22
67818;BME280;54614;47.576;7.524;2023-02-11T04:38:05;100432.81;;;22.65;29.11
67818;BME280;54614;47.576;7.524;2023-02-11T04:40:31;100431.50;;;22.69;29.11
67818;BME280;54614;47.576;7.524;2023-02-11T04:42:57;100422.75;;;22.67;29.38
67818;BME280;54614;47.576;7.524;2023-02-11T04:45:23;100423.28;;;22.70;29.02
67818;BME280;54614;47.576;7.524;2023-02-11T04:47:49;100427.44;;;22.65;29.06
67818;BME280;54614;47.576;7.524;2023-02-11T04:50:15;100425.59;;;22.65;29.07
67818;BME280;54614;47.576;7.524;2023-02-11T04:52:40;100428.97;;;22.67;29.00
67818;BME280;54614;47.576;7.524;2023-02-11T04:55:06;100424.59;;;22.66;29.26
67818;BME280;54614;47.576;7.524;2023-02-11T04:57:32;100432.94;;;22.63;29.11
67818;BME280;54614;47.576;7.524;2023-02-11T04:59:58;100441.69;;;22.65;29.07
67818;BME280;54614;47.576;7.524;2023-02-11T05:02:24;100444.38;;;22.65;28.87
67818;BME280;54614;47.576;7.524;2023-02-11T05:04:50;100435.63;;;22.63;29.02
67818;BME280;54614;47.576;7.524;2023-02-11T05:07:16;100425.59;;;22.65;29.26
67818;BME280;54614;47.576;7.524;2023-02-11T05:09:41;100428.28;;;22.65;29.30
67818;BME280;54614;47.576;7.524;2023-02-11T05:12:07;100426.06;;;22.61;29.19
67818;BME280;54614;47.576;7.524;2023-02-11T05:14:33;100429.44;;;22.63;29.28
67818;BME280;54614;47.576;7.524;2023-02-11T05:16:59;100425.59;;;22.65;28.98
67818;BME280;54614;47.576;7.524;2023-02-11T05:19:25;100422.63;;;22.50;31.04
67818;BME280;54614;47.576;7.524;2023-02-11T05:21:51;100433.66;;;22.47;31.58
67818;BME280;54614;47.576;7.524;2023-02-11T05:24:19;100432.13;;;22.45;30.81
67818;BME280;54614;47.576;7.524;2023-02-11T05:26:45;100436.25;;;22.39;30.30
67818;BME280;54614;47.576;7.524;2023-02-11T05:29:11;100437.63;;;22.43;30.19
67818;BME280;54614;47.576;7.524;2023-02-11T05:31:36;100442.06;;;22.52;29.80
67818;BME280;54614;47.576;7.524;2023-02-11T05:34:02;100447.44;;;22.52;29.78
67818;BME280;54614;47.576;7.524;2023-02-11T05:36:29;100452.50;;;22.56;29.42
67818;BME280;54614;47.576;7.524;2023-02-11T05:38:54;100450.34;;;22.59;29.41
67818;BME280;54614;47.576;7.524;2023-02-11T05:41:20;100447.50;;;22.61;29.45
67818;BME280;54614;47.576;7.524;2023-02-11T05:43:50;100446.13;;;22.57;29.57
67818;BME280;54614;47.576;7.524;2023-02-11T05:46:16;100452.34;;;22.57;29.43
67818;BME280;54614;47.576;7.524;2023-02-11T05:48:43;100462.78;;;22.60;29.17
67818;BME280;54614;47.576;7.524;2023-02-11T05:51:09;100471.97;;;22.58;29.41
67818;BME280;54614;47.576;7.524;2023-02-11T05:53:35;100469.13;;;22.59;29.70
67818;BME280;54614;47.576;7.524;2023-02-11T05:56:01;100472.19;;;22.46;29.84
67818;BME280;54614;47.576;7.524;2023-02-11T05:58:27;100474.81;;;22.56;29.28
67818;BME280;54614;47.576;7.524;2023-02-11T06:00:53;100464.75;;;22.58;29.10
67818;BME280;54614;47.576;7.524;2023-02-11T06:03:19;100466.59;;;22.58;29.64
67818;BME280;54614;47.576;7.524;2023-02-11T06:05:45;100477.19;;;22.59;29.43
67818;BME280;54614;47.576;7.524;2023-02-11T06:08:11;100465.00;;;22.47;29.57
67818;BME280;54614;47.576;7.524;2023-02-11T06:10:37;100466.81;;;22.46;29.47
67818;BME280;54614;47.576;7.524;2023-02-11T06:13:03;100477.94;;;22.51;29.29
67818;BME280;54614;47.576;7.524;2023-02-11T06:15:29;100474.13;;;22.54;29.40
67818;BME280;54614;47.576;7.524;2023-02-11T06:17:55;100490.34;;;22.52;29.28
67818;BME280;54614;47.576;7.524;2023-02-11T06:20:21;100479.16;;;22.57;29.41
67818;BME280;54614;47.576;7.524;2023-02-11T06:22:47;100479.78;;;22.51;29.05
67818;BME280;54614;47.576;7.524;2023-02-11T06:25:13;100464.84;;;22.48;28.96
67818;BME280;54614;47.576;7.524;2023-02-11T06:27:39;100455.78;;;22.49;29.14
67818;BME280;54614;47.576;7.524;2023-02-11T06:30:06;100459.63;;;22.47;29.25
67818;BME280;54614;47.576;7.524;2023-02-11T06:32:33;100444.69;;;22.44;29.38
67818;BME280;54614;47.576;7.524;2023-02-11T06:34:59;100437.47;;;22.45;29.14
67818;BME280;54614;47.576;7.524;2023-02-11T06:37:28;100443.53;;;22.47;29.11
67818;BME280;54614;47.576;7.524;2023-02-11T06:39:54;100446.06;;;22.48;29.08
67818;BME280;54614;47.576;7.524;2023-02-11T06:42:19;100437.19;;;22.48;29.11
67818;BME280;54614;47.576;7.524;2023-02-11T06:44:45;100456.78;;;22.48;29.33
67818;BME280;54614;47.576;7.524;2023-02-11T06:47:12;100473.66;;;22.41;29.31
67818;BME280;54614;47.576;7.524;2023-02-11T06:49:38;100466.81;;;22.46;29.24
67818;BME280;54614;47.576;7.524;2023-02-11T06:52:04;100456.47;;;22.51;29.34
67818;BME280;54614;47.576;7.524;2023-02-11T06:54:30;100457.31;;;22.52;29.29
67818;BME280;54614;47.576;7.524;2023-02-11T06:56:56;100470.03;;;22.50;29.37
67818;BME280;54614;47.576;7.524;2023-02-11T06:59:22;100470.19;;;22.48;29.54
67818;BME280;54614;47.576;7.524;2023-02-11T07:01:47;100466.38;;;22.51;29.25
67818;BME280;54614;47.576;7.524;2023-02-11T07:04:13;100471.56;;;22.52;29.31
67818;BME280;54614;47.576;7.524;2023-02-11T07:06:40;100469.91;;;22.51;29.39
67818;BME280;54614;47.576;7.524;2023-02-11T07:09:07;100482.38;;;22.43;29.23
67818;BME280;54614;47.576;7.524;2023-02-11T07:11:33;100467.13;;;22.43;30.53
67818;BME280;54614;47.576;7.524;2023-02-11T07:14:06;100460.06;;;22.25;30.24
67818;BME280;54614;47.576;7.524;2023-02-11T07:16:35;100455.63;;;22.33;30.13
67818;BME280;54614;47.576;7.524;2023-02-11T07:19:02;100444.75;;;22.52;29.45
67818;BME280;54614;47.576;7.524;2023-02-11T07:21:29;100441.47;;;22.59;30.00
67818;BME280;54614;47.576;7.524;2023-02-11T07:23:55;100440.84;;;22.47;29.62
67818;BME280;54614;47.576;7.524;2023-02-11T07:26:23;100453.03;;;22.41;29.81
67818;BME280;54614;47.576;7.524;2023-02-11T07:28:51;100468.28;;;22.41;29.72
67818;BME280;54614;47.576;7.524;2023-02-11T07:31:24;100454.94;;;22.49;30.24
67818;BME280;54614;47.576;7.524;2023-02-11T07:33:58;100462.00;;;22.32;30.70
67818;BME280;54614;47.576;7.524;2023-02-11T07:36:25;100458.91;;;22.00;31.73
67818;BME280;54614;47.576;7.524;2023-02-11T07:38:52;100448.41;;;22.16;31.59
67818;BME280;54614;47.576;7.524;2023-02-11T07:41:20;100447.56;;;22.15;31.39
67818;BME280;54614;47.576;7.524;2023-02-11T07:43:47;100441.84;;;22.46;30.78
67818;BME280;54614;47.576;7.524;2023-02-11T07:46:20;100457.31;;;22.34;31.04
67818;BME280;54614;47.576;7.524;2023-02-11T07:48:46;100445.00;;;22.41;30.83
67818;BME280;54614;47.576;7.524;2023-02-11T07:51:19;100447.22;;;22.46;30.80
67818;BME280;54614;47.576;7.524;2023-02-11T07:53:46;100463.69;;;22.33;30.94
67818;BME280;54614;47.576;7.524;2023-02-11T07:56:14;100444.16;;;22.59;30.63
67818;BME280;54614;47.576;7.524;2023-02-11T07:58:41;100440.94;;;22.55;31.18
67818;BME280;54614;47.576;7.524;2023-02-11T08:01:12;100435.88;;;22.52;30.82
67818;BME280;54614;47.576;7.524;2023-02-11T08:03:40;100442.31;;;22.59;30.65
67818;BME280;54614;47.576;7.524;2023-02-11T08:06:13;100434.72;;;22.72;30.54
67818;BME280;54614;47.576;7.524;2023-02-11T08:08:41;100430.72;;;22.76;30.02
67818;BME280;54614;47.576;7.524;2023-02-11T08:11:23;100439.22;;;22.72;30.40
67818;BME280;54614;47.576;7.524;2023-02-11T08:13:50;100437.63;;;22.26;31.86
67818;BME280;54614;47.576;7.524;2023-02-11T08:16:46;100435.25;;;22.23;32.03
67818;BME280;54614;47.576;7.524;2023-02-11T08:19:15;100433.63;;;22.12;32.40
67818;BME280;54614;47.576;7.524;2023-02-11T08:21:41;100442.59;;;21.93;32.68
67818;BME280;54614;47.576;7.524;2023-02-11T08:24:08;100441.34;;;21.87;33.04
67818;BME280;54614;47.576;7.524;2023-02-11T08:26:35;100431.78;;;21.85;32.87
67818;BME280;54614;47.576;7.524;2023-02-11T08:29:09;100450.69;;;21.83;32.91
67818;BME280;54614;47.576;7.524;2023-02-11T08:31:40;100457.56;;;21.86;32.91
67818;BME280;54614;47.576;7.524;2023-02-11T08:34:07;100458.13;;;21.90;32.75
67818;BME280;54614;47.576;7.524;2023-02-11T08:36:36;100460.47;;;22.30;31.55
67818;BME280;54614;47.576;7.524;2023-02-11T08:39:07;100451.28;;;22.68;30.99
67818;BME280;54614;47.576;7.524;2023-02-11T08:41:34;100449.97;;;22.54;31.05
67818;BME280;54614;47.576;7.524;2023-02-11T08:44:00;100445.13;;;22.75;30.27
67818;BME280;54614;47.576;7.524;2023-02-11T08:46:26;100449.13;;;22.71;30.30
67818;BME280;54614;47.576;7.524;2023-02-11T08:48:52;100445.06;;;22.67;30.24
67818;BME280;54614;47.576;7.524;2023-02-11T08:51:23;100449.81;;;22.73;30.15
67818;BME280;54614;47.576;7.524;2023-02-11T08:53:50;100447.22;;;22.81;30.23
67818;BME280;54614;47.576;7.524;2023-02-11T08:56:19;100442.13;;;22.78;30.25
67818;BME280;54614;47.576;7.524;2023-02-11T08:58:46;100446.28;;;22.73;30.23
67818;BME280;54614;47.576;7.524;2023-02-11T09:01:20;100440.06;;;22.72;30.33
67818;BME280;54614;47.576;7.524;2023-02-11T09:03:46;100444.06;;;22.86;30.09
67818;BME280;54614;47.576;7.524;2023-02-11T09:06:15;100459.06;;;22.79;30.43
67818;BME280;54614;47.576;7.524;2023-02-11T09:08:46;100455.28;;;22.81;30.08
67818;BME280;54614;47.576;7.524;2023-02-11T09:11:15;100446.81;;;22.76;30.43
67818;BME280;54614;47.576;7.524;2023-02-11T09:13:43;100455.28;;;22.81;30.48
67818;BME280;54614;47.576;7.524;2023-02-11T09:16:17;100458.50;;;22.85;30.18
67818;BME280;54614;47.576;7.524;2023-02-11T09:18:44;100452.19;;;22.76;30.62
67818;BME280;54614;47.576;7.524;2023-02-11T09:21:11;100456.16;;;22.72;30.42
67818;BME280;54614;47.576;7.524;2023-02-11T09:23:37;100447.97;;;22.74;30.29
67818;BME280;54614;47.576;7.524;2023-02-11T09:26:09;100443.91;;;22.88;30.47
67818;BME280;54614;47.576;7.524;2023-02-11T09:28:36;100450.03;;;22.62;31.45
67818;BME280;54614;47.576;7.524;2023-02-11T09:31:08;100450.75;;;22.64;30.81
67818;BME280;54614;47.576;7.524;2023-02-11T09:33:37;100449.06;;;22.81;30.39
67818;BME280;54614;47.576;7.524;2023-02-11T09:36:05;100458.09;;;22.98;30.08
67818;BME280;54614;47.576;7.524;2023-02-11T09:38:32;100453.66;;;22.89;30.46
67818;BME280;54614;47.576;7.524;2023-02-11T09:40:58;100463.00;;;23.02;29.96
67818;BME280;54614;47.576;7.524;2023-02-11T09:43:35;100454.69;;;23.13;29.84
67818;BME280;54614;47.576;7.524;2023-02-11T09:46:04;100457.16;;;23.07;29.88
67818;BME280;54614;47.576;7.524;2023-02-11T09:48:39;100458.00;;;23.07;29.88
67818;BME280;54614;47.576;7.524;2023-02-11T09:51:20;100454.94;;;23.02;30.09
67818;BME280;54614;47.576;7.524;2023-02-11T09:53:56;100453.47;;;23.08;29.71
67818;BME280;54614;47.576;7.524;2023-02-11T09:56:24;100460.09;;;23.22;29.49
67818;BME280;54614;47.576;7.524;2023-02-11T09:58:50;100455.94;;;23.27;29.51
67818;BME280;54614;47.576;7.524;2023-02-11T10:01:36;100465.22;;;23.33;29.19
67818;BME280;54614;47.576;7.524;2023-02-11T10:06:56;100465.94;;;23.17;29.61
67818;BME280;54614;47.576;7.524;2023-02-11T10:15:45;100475.63;;;22.74;32.15
67818;BME280;54614;47.576;7.524;2023-02-11T10:24:17;100475.91;;;22.81;31.53
67818;BME280;54614;47.576;7.524;2023-02-11T10:26:44;100479.69;;;22.78;31.69
67818;BME280;54614;47.576;7.524;2023-02-11T10:29:34;100478.44;;;22.82;31.67
67818;BME280;54614;47.576;7.524;2023-02-11T10:34:58;100476.19;;;22.78;31.73
67818;BME280;54614;47.576;7.524;2023-02-11T10:37:25;100467.28;;;22.77;31.70
67818;BME280;54614;47.576;7.524;2023-02-11T10:39:50;100474.91;;;22.82;31.55
67818;BME280;54614;47.576;7.524;2023-02-11T10:42:17;100475.28;;;22.87;31.39
67818;BME280;54614;47.576;7.524;2023-02-11T10:45:01;100480.34;;;22.90;31.33
67818;BME280;54614;47.576;7.524;2023-02-11T10:47:34;100480.72;;;22.95;31.62
67818;BME280;54614;47.576;7.524;2023-02-11T10:50:26;100488.09;;;22.93;31.44
67818;BME280;54614;47.576;7.524;2023-02-11T10:53:10;100488.00;;;23.03;31.38
67818;BME280;54614;47.576;7.524;2023-02-11T10:55:36;100479.41;;;22.99;31.45
67818;BME280;54614;47.576;7.524;2023-02-11T10:58:03;100479.56;;;22.98;31.18
67818;BME280;54614;47.576;7.524;2023-02-11T11:00:36;100475.72;;;23.00;31.48
67818;BME280;54614;47.576;7.524;2023-02-11T11:03:45;100469.41;;;23.09;31.04
67818;BME280;54614;47.576;7.524;2023-02-11T11:06:10;100463.38;;;23.07;30.91
67818;BME280;54614;47.576;7.524;2023-02-11T11:08:49;100456.31;;;23.06;30.72
67818;BME280;54614;47.576;7.524;2023-02-11T11:11:22;100445.88;;;23.03;30.95
67818;BME280;54614;47.576;7.524;2023-02-11T11:14:01;100449.16;;;23.15;30.86
67818;BME280;54614;47.576;7.524;2023-02-11T11:16:35;100438.41;;;23.15;30.75
67818;BME280;54614;47.576;7.524;2023-02-11T11:21:45;100436.78;;;23.22;30.46
67818;BME280;54614;47.576;7.524;2023-02-11T11:24:27;100437.09;;;23.19;30.64
67818;BME280;54614;47.576;7.524;2023-02-11T11:27:00;100433.72;;;23.17;31.00
67818;BME280;54614;47.576;7.524;2023-02-11T11:29:52;100432.88;;;23.17;31.21
67818;BME280;54614;47.576;7.524;2023-02-11T11:32:27;100432.25;;;23.23;31.09
67818;BME280;54614;47.576;7.524;2023-02-11T11:34:59;100426.56;;;23.26;31.13
67818;BME280;54614;47.576;7.524;2023-02-11T11:37:31;100423.53;;;23.21;30.90
67818;BME280;54614;47.576;7.524;2023-02-11T11:40:20;100414.81;;;23.27;30.93
67818;BME280;54614;47.576;7.524;2023-02-11T11:45:29;100405.97;;;23.60;30.16
67818;BME280;54614;47.576;7.524;2023-02-11T11:50:43;100407.38;;;23.81;29.67
67818;BME280;54614;47.576;7.524;2023-02-11T11:53:28;100395.31;;;23.85;29.72
67818;BME280;54614;47.576;7.524;2023-02-11T11:58:29;100386.91;;;23.88;29.46
67818;BME280;54614;47.576;7.524;2023-02-11T12:15:46;100371.59;;;23.72;32.77
67818;BME280;54614;47.576;7.524;2023-02-11T12:21:28;100358.38;;;23.53;32.56
67818;BME280;54614;47.576;7.524;2023-02-11T12:28:13;100361.91;;;23.53;32.27
67818;BME280;54614;47.576;7.524;2023-02-11T12:31:16;100350.88;;;23.56;32.69
67818;BME280;54614;47.576;7.524;2023-02-11T12:39:32;100346.19;;;23.58;32.10
67818;BME280;54614;47.576;7.524;2023-02-11T12:42:28;100347.88;;;23.59;32.08
67818;BME280;54614;47.576;7.524;2023-02-11T12:51:20;100352.25;;;23.68;31.18
67818;BME280;54614;47.576;7.524;2023-02-11T12:57:21;100324.75;;;23.83;30.50
67818;BME280;54614;47.576;7.524;2023-02-11T13:00:06;100327.97;;;23.86;30.15
67818;BME280;54614;47.576;7.524;2023-02-11T13:02:46;100321.91;;;23.84;29.95
67818;BME280;54614;47.576;7.524;2023-02-11T13:08:16;100325.28;;;23.44;30.76
67818;BME280;54614;47.576;7.524;2023-02-11T13:10:49;100327.28;;;23.42;30.71
67818;BME280;54614;47.576;7.524;2023-02-11T13:13:24;100328.72;;;23.54;30.53
67818;BME280;54614;47.576;7.524;2023-02-11T13:15:58;100316.63;;;23.58;30.45
67818;BME280;54614;47.576;7.524;2023-02-11T13:24:09;100314.78;;;23.59;30.49
67818;BME280;54614;47.576;7.524;2023-02-11T13:26:49;100320.94;;;23.51;30.76
67818;BME280;54614;47.576;7.524;2023-02-11T13:32:05;100312.03;;;23.42;30.79
67818;BME280;54614;47.576;7.524;2023-02-11T13:37:27;100305.66;;;23.52;30.57
67818;BME280;54614;47.576;7.524;2023-02-11T13:40:06;100293.13;;;23.60;30.47
67818;BME280;54614;47.576;7.524;2023-02-11T13:42:52;100294.00;;;23.77;30.45
67818;BME280;54614;47.576;7.524;2023-02-11T13:48:01;100291.16;;;23.78;30.09
67818;BME280;54614;47.576;7.524;2023-02-11T13:50:36;100289.16;;;23.81;30.23
67818;BME280;54614;47.576;7.524;2023-02-11T13:53:05;100292.50;;;23.83;30.05
67818;BME280;54614;47.576;7.524;2023-02-11T13:55:35;100289.16;;;23.81;29.97
67818;BME280;54614;47.576;7.524;2023-02-11T14:11:52;100287.16;;;23.91;30.02
67818;BME280;54614;47.576;7.524;2023-02-11T14:14:22;100276.91;;;23.94;29.66
67818;BME280;54614;47.576;7.524;2023-02-11T14:19:49;100282.97;;;24.04;28.86
67818;BME280;54614;47.576;7.524;2023-02-11T14:22:41;100280.59;;;24.01;28.97
67818;BME280;54614;47.576;7.524;2023-02-11T14:25:26;100281.94;;;23.97;29.15
67818;BME280;54614;47.576;7.524;2023-02-11T14:28:19;100276.41;;;23.91;29.17
67818;BME280;54614;47.576;7.524;2023-02-11T14:31:05;100278.09;;;24.00;29.12
67818;BME280;54614;47.576;7.524;2023-02-11T14:39:28;100276.41;;;23.99;29.21
67818;BME280;54614;47.576;7.524;2023-02-11T14:42:01;100276.41;;;23.99;28.63
67818;BME280;54614;47.576;7.524;2023-02-11T14:44:31;100263.63;;;23.93;29.11
67818;BME280;54614;47.576;7.524;2023-02-11T14:46:58;100261.44;;;23.96;28.70
67818;BME280;54614;47.576;7.524;2023-02-11T14:49:32;100262.47;;;23.95;28.74
67818;BME280;54614;47.576;7.524;2023-02-11T14:52:15;100262.63;;;23.94;28.78
67818;BME280;54614;47.576;7.524;2023-02-11T14:54:44;100255.56;;;23.76;29.09
67818;BME280;54614;47.576;7.524;2023-02-11T14:57:17;100259.59;;;23.81;29.29
67818;BME280;54614;47.576;7.524;2023-02-11T15:00:03;100259.59;;;23.97;28.63
67818;BME280;54614;47.576;7.524;2023-02-11T15:02:36;100252.03;;;23.84;28.85
67818;BME280;54614;47.576;7.524;2023-02-11T15:05:27;100248.00;;;23.88;28.83
67818;BME280;54614;47.576;7.524;2023-02-11T15:08:04;100243.63;;;23.87;29.00
67818;BME280;54614;47.576;7.524;2023-02-11T15:10:36;100246.50;;;23.86;28.86
67818;BME280;54614;47.576;7.524;2023-02-11T15:13:06;100247.34;;;23.94;28.72
67818;BME280;54614;47.576;7.524;2023-02-11T15:15:33;100244.81;;;23.93;28.80
67818;BME280;54614;47.576;7.524;2023-02-11T15:18:03;100253.13;;;23.49;30.09
67818;BME280;54614;47.576;7.524;2023-02-11T15:20:32;100247.47;;;23.60;29.39
67818;BME280;54614;47.576;7.524;2023-02-11T15:23:07;100251.34;;;23.66;29.06
67818;BME280;54614;47.576;7.524;2023-02-11T15:25:45;100250.16;;;23.68;29.03